Time;durP1;ratioP1;P1;durP2;ratioP2;P2;SDS_P1;SDS_P2;PMS_P1;PMS_P2;Temp;Humidity;BMP_temperature;BMP_pressure;BME280_temperature;BME280_humidity;BME280_pressure;Samples;Min_cycle;Max_cycle;Signal;HPM_P1;HPM_P2
2023/05/01 00:02:02;;;;;;;12.93;11.83;;;8.60;99.90;;;;;;5009669;28;20455;-70
2023/05/01 00:04:29;;;;;;;12.93;11.80;;;8.50;99.90;;;;;;5009043;28;20470;-70
2023/05/01 00:06:56;;;;;;;14.73;13.33;;;8.40;99.90;;;;;;5010082;28;20478;-70
2023/05/01 00:09:23;;;;;;;13.73;12.40;;;8.30;99.90;;;;;;5010018;28;20460;-70
2023/05/01 00:11:50;;;;;;;13.97;12.57;;;8.40;99.90;;;;;;5009833;28;20889;-70
2023/05/01 00:14:16;;;;;;;13.80;12.40;;;8.40;99.90;;;;;;5008737;28;20491;-70
2023/05/01 00:16:45;;;;;;;14.83;13.07;;;8.30;99.90;;;;;;5010108;28;20455;-70
2023/05/01 00:19:17;;;;;;;12.73;11.43;;;8.30;99.90;;;;;;5010006;28;20505;-70
2023/05/01 00:21:44;;;;;;;14.80;12.80;;;8.30;99.90;;;;;;5010159;28;20442;-70
2023/05/01 00:24:11;;;;;;;13.13;11.53;;;8.40;99.90;;;;;;5008930;28;20469;-70
2023/05/01 00:26:38;;;;;;;13.50;11.80;;;8.60;99.90;;;;;;5013918;28;20470;-70
2023/05/01 00:29:05;;;;;;;13.03;11.83;;;8.70;99.90;;;;;;5013897;28;20474;-70
2023/05/01 00:31:31;;;;;;;12.97;11.73;;;8.60;99.90;;;;;;5014418;28;20575;-70
2023/05/01 00:34:00;;;;;;;12.47;11.30;;;8.60;99.90;;;;;;5012946;28;20479;-69
2023/05/01 00:36:26;;;;;;;13.53;12.33;;;8.50;99.90;;;;;;5014187;28;20451;-69
2023/05/01 00:38:53;;;;;;;13.30;12.00;;;8.50;99.90;;;;;;5014169;28;20453;-70
2023/05/01 00:41:20;;;;;;;15.17;13.10;;;8.60;99.90;;;;;;5013542;28;20463;-69
2023/05/01 00:43:47;;;;;;;13.03;11.77;;;8.70;99.90;;;;;;5012912;28;20470;-70
2023/05/01 00:46:14;;;;;;;12.60;11.37;;;8.60;99.90;;;;;;5013649;28;20460;-70
2023/05/01 00:48:41;;;;;;;13.53;12.33;;;8.50;99.80;;;;;;5013851;28;20950;-69
2023/05/01 00:51:09;;;;;;;14.70;12.80;;;8.40;99.90;;;;;;5013754;28;20492;-71
2023/05/01 00:53:36;;;;;;;15.60;14.10;;;8.30;99.90;;;;;;5012433;28;20557;-72
2023/05/01 00:56:04;;;;;;;15.17;12.83;;;8.30;99.90;;;;;;5013978;28;20453;-71
2023/05/01 00:58:30;;;;;;;13.70;12.50;;;8.30;99.90;;;;;;5013988;28;21021;-71
2023/05/01 01:00:57;;;;;;;14.10;12.70;;;8.20;99.90;;;;;;5014345;28;20563;-71
2023/05/01 01:03:24;;;;;;;15.53;14.03;;;8.20;99.90;;;;;;5012501;28;20470;-71
2023/05/01 01:05:56;;;;;;;14.37;12.97;;;8.10;99.90;;;;;;5013756;28;20443;-71
2023/05/01 01:08:30;;;;;;;14.73;13.43;;;8.00;99.90;;;;;;5013242;28;20466;-70
2023/05/01 01:11:13;;;;;;;14.53;13.03;;;8.00;99.90;;;;;;5013398;28;20459;-71
2023/05/01 01:13:46;;;;;;;15.07;13.40;;;8.00;99.90;;;;;;5011689;28;20524;-70
2023/05/01 01:16:23;;;;;;;16.47;14.90;;;8.10;99.90;;;;;;5013222;28;20458;-70
2023/05/01 01:18:56;;;;;;;14.17;12.67;;;8.10;99.90;;;;;;5013286;28;20445;-70
2023/05/01 01:21:28;;;;;;;14.23;12.67;;;8.10;99.90;;;;;;5013297;28;20849;-70
2023/05/01 01:24:22;;;;;;;13.33;12.00;;;8.10;99.90;;;;;;5011687;28;20473;-70
2023/05/01 01:27:13;;;;;;;14.37;12.70;;;8.20;99.90;;;;;;5013007;28;21033;-70
2023/05/01 01:29:51;;;;;;;13.23;12.03;;;8.20;99.90;;;;;;5012695;28;20438;-70
2023/05/01 01:33:00;;;;;;;14.10;12.80;;;8.20;99.90;;;;;;5012317;28;20492;-70
2023/05/01 01:35:31;;;;;;;12.90;11.70;;;8.20;99.90;;;;;;5012272;28;20996;-70
2023/05/01 01:38:02;;;;;;;17.07;12.93;;;8.20;99.90;;;;;;5012939;28;20452;-70
2023/05/01 01:40:34;;;;;;;14.10;12.70;;;8.30;99.90;;;;;;5012648;28;20933;-70
2023/05/01 01:43:05;;;;;;;15.37;13.00;;;8.30;99.90;;;;;;5011327;28;20463;-70
2023/05/01 01:45:39;;;;;;;13.63;12.23;;;8.20;99.90;;;;;;5012544;28;20512;-71
2023/05/01 01:48:09;;;;;;;15.47;13.30;;;8.10;99.90;;;;;;5012659;28;20537;-70
2023/05/01 01:50:39;;;;;;;18.17;13.47;;;8.00;99.90;;;;;;5012737;28;20451;-70
2023/05/01 01:53:08;;;;;;;15.20;13.60;;;8.00;99.90;;;;;;5010900;28;20485;-70
2023/05/01 01:55:38;;;;;;;16.03;14.43;;;7.90;99.90;;;;;;5012463;28;20450;-70
2023/05/01 01:58:06;;;;;;;14.83;13.40;;;8.00;99.90;;;;;;5012386;28;20450;-71
2023/05/01 02:00:35;;;;;;;16.80;13.67;;;8.00;99.90;;;;;;5012137;28;20451;-71
2023/05/01 02:03:03;;;;;;;13.33;12.03;;;8.00;99.90;;;;;;5010484;28;20580;-71
2023/05/01 02:05:33;;;;;;;15.53;14.13;;;8.10;99.90;;;;;;5012200;28;20443;-70
2023/05/01 02:08:02;;;;;;;14.60;13.20;;;8.30;99.90;;;;;;5006710;28;20451;-71
2023/05/01 02:10:29;;;;;;;13.50;12.10;;;8.50;99.90;;;;;;5004350;28;21037;-70
2023/05/01 02:12:59;;;;;;;15.40;12.20;;;8.50;99.90;;;;;;5002636;28;21053;-70
2023/05/01 02:15:27;;;;;;;14.70;13.27;;;8.40;99.90;;;;;;5001923;28;20827;-69
2023/05/01 02:17:55;;;;;;;15.13;13.63;;;8.20;99.90;;;;;;5004087;28;20480;-70
2023/05/01 02:20:22;;;;;;;13.93;12.63;;;8.30;99.90;;;;;;5010040;28;20454;-70
2023/05/01 02:22:52;;;;;;;15.10;12.60;;;8.30;99.90;;;;;;5010292;28;20483;-71
2023/05/01 02:25:21;;;;;;;14.80;13.30;;;8.30;99.90;;;;;;5008507;28;20518;-70
2023/05/01 02:27:54;;;;;;;16.67;13.07;;;8.40;99.90;;;;;;5011756;28;21226;-70
2023/05/01 02:30:21;;;;;;;16.60;14.57;;;8.40;99.90;;;;;;5012170;28;20822;-70
2023/05/01 02:32:48;;;;;;;14.70;13.20;;;8.40;99.90;;;;;;5010612;28;20496;-71
2023/05/01 02:35:15;;;;;;;12.93;11.63;;;8.50;99.90;;;;;;5011868;28;20451;-70
2023/05/01 02:37:43;;;;;;;14.30;12.80;;;8.70;99.90;;;;;;5011482;28;20545;-70
2023/05/01 02:40:13;;;;;;;15.53;14.03;;;8.70;99.90;;;;;;5011391;28;20457;-70
2023/05/01 02:42:43;;;;;;;14.27;12.87;;;8.70;99.90;;;;;;5010357;28;20506;-70
2023/05/01 02:45:17;;;;;;;14.83;13.30;;;8.50;99.90;;;;;;5011479;28;20449;-70
2023/05/01 02:47:45;;;;;;;14.40;13.00;;;8.50;99.90;;;;;;5011143;28;20827;-70
2023/05/01 02:50:14;;;;;;;16.10;14.13;;;8.50;99.90;;;;;;5011077;28;20456;-70
2023/05/01 02:52:42;;;;;;;14.00;12.67;;;8.50;99.90;;;;;;5010101;28;20482;-70
2023/05/01 02:55:09;;;;;;;14.70;12.40;;;8.60;99.90;;;;;;5010913;28;20459;-70
2023/05/01 02:57:36;;;;;;;14.30;12.27;;;8.60;99.90;;;;;;5011070;28;20976;-70
2023/05/01 03:00:08;;;;;;;13.70;12.30;;;8.50;99.90;;;;;;5011296;28;20541;-71
2023/05/01 03:02:35;;;;;;;15.23;12.20;;;8.60;99.90;;;;;;5009696;28;20462;-70
2023/05/01 03:05:02;;;;;;;14.00;12.60;;;8.70;99.90;;;;;;5011058;28;20451;-69
2023/05/01 03:07:33;;;;;;;14.00;12.50;;;8.70;99.90;;;;;;5028077;28;20971;-70
2023/05/01 03:10:01;;;;;;;12.67;11.47;;;8.70;99.90;;;;;;5030901;28;20457;-71
2023/05/01 03:12:28;;;;;;;13.27;12.00;;;8.60;99.90;;;;;;5029264;28;20551;-70
2023/05/01 03:14:55;;;;;;;14.30;12.17;;;8.50;99.90;;;;;;5030342;28;20462;-70
2023/05/01 03:17:24;;;;;;;14.43;12.63;;;8.70;99.90;;;;;;5030246;28;20543;-70
2023/05/01 03:19:50;;;;;;;12.73;11.53;;;8.90;99.90;;;;;;5030619;28;20446;-69
2023/05/01 03:22:17;;;;;;;11.80;10.10;;;8.90;99.90;;;;;;5029962;28;20449;-70
2023/05/01 03:24:46;;;;;;;24.47;13.10;;;8.80;99.90;;;;;;5029377;28;20970;-70
2023/05/01 03:27:13;;;;;;;12.47;11.37;;;8.80;99.90;;;;;;5030587;28;20462;-70
2023/05/01 03:29:39;;;;;;;13.20;11.90;;;8.80;99.90;;;;;;5030060;28;20441;-70
2023/05/01 03:32:06;;;;;;;13.20;12.00;;;8.70;99.90;;;;;;5029778;28;20891;-70
2023/05/01 03:34:35;;;;;;;14.03;12.60;;;8.70;99.90;;;;;;5029262;28;20484;-69
2023/05/01 03:37:01;;;;;;;12.40;11.30;;;8.70;99.90;;;;;;5030629;28;20525;-70
2023/05/01 03:39:29;;;;;;;13.10;11.90;;;8.70;99.90;;;;;;5030177;28;20877;-70
2023/05/01 03:41:56;;;;;;;15.43;13.80;;;8.50;99.90;;;;;;5019519;28;20445;-69
2023/05/01 03:44:23;;;;;;;14.43;12.93;;;8.50;99.90;;;;;;5009355;28;20470;-70
2023/05/01 03:46:50;;;;;;;15.10;13.67;;;8.40;99.90;;;;;;5010074;28;20966;-70
2023/05/01 03:49:16;;;;;;;14.27;12.83;;;8.40;99.90;;;;;;5010820;28;20448;-70
2023/05/01 03:51:44;;;;;;;14.23;12.83;;;8.40;99.90;;;;;;5010434;28;20447;-70
2023/05/01 03:54:11;;;;;;;13.17;11.90;;;8.50;99.90;;;;;;5009681;28;20460;-70
2023/05/01 03:56:38;;;;;;;13.67;12.33;;;8.60;99.90;;;;;;5009904;28;20982;-70
2023/05/01 03:59:05;;;;;;;13.77;12.40;;;8.80;99.90;;;;;;5009482;28;20450;-70
2023/05/01 04:01:32;;;;;;;14.87;13.43;;;8.80;99.90;;;;;;5010514;28;20527;-70
2023/05/01 04:03:59;;;;;;;15.57;13.90;;;8.80;99.90;;;;;;5008897;28;20560;-70
2023/05/01 04:06:26;;;;;;;13.57;12.27;;;8.80;99.90;;;;;;5005736;28;20532;-70
2023/05/01 04:08:55;;;;;;;14.20;12.73;;;8.70;99.90;;;;;;5009710;28;20459;-71
2023/05/01 04:11:21;;;;;;;15.77;13.03;;;8.60;99.90;;;;;;5010132;28;20448;-70
2023/05/01 04:13:48;;;;;;;15.47;14.07;;;8.60;99.90;;;;;;5008628;28;20870;-70
2023/05/01 04:16:15;;;;;;;14.53;13.23;;;8.60;99.90;;;;;;5006024;28;20464;-70
2023/05/01 04:18:42;;;;;;;13.10;11.87;;;8.70;99.90;;;;;;5010132;28;20831;-70
2023/05/01 04:21:09;;;;;;;14.73;13.27;;;8.80;99.90;;;;;;5010121;28;20459;-70
2023/05/01 04:23:36;;;;;;;13.73;12.53;;;8.80;99.90;;;;;;5009240;28;20477;-70
2023/05/01 04:26:04;;;;;;;13.93;12.13;;;8.80;99.90;;;;;;5010383;28;20447;-70
2023/05/01 04:28:31;;;;;;;13.30;12.00;;;8.90;99.90;;;;;;5010909;28;20452;-70
2023/05/01 04:30:58;;;;;;;14.30;12.90;;;8.90;99.60;;;;;;5010614;28;20490;-70
2023/05/01 04:33:24;;;;;;;13.80;12.60;;;8.90;99.80;;;;;;5009165;28;20577;-70
2023/05/01 04:35:51;;;;;;;14.07;12.27;;;9.00;99.90;;;;;;5010163;28;20461;-70
2023/05/01 04:38:18;;;;;;;12.60;11.40;;;9.00;99.90;;;;;;5010256;28;20447;-70
2023/05/01 04:40:45;;;;;;;14.47;12.97;;;9.10;99.90;;;;;;5010217;28;20558;-70
2023/05/01 04:43:13;;;;;;;14.50;13.13;;;9.10;99.90;;;;;;5008618;28;20481;-71
2023/05/01 04:45:40;;;;;;;12.83;11.47;;;9.00;99.90;;;;;;5010507;28;20448;-71
2023/05/01 04:48:07;;;;;;;12.77;11.57;;;9.00;99.90;;;;;;5010058;28;20458;-69
2023/05/01 04:50:34;;;;;;;14.40;13.00;;;9.00;99.90;;;;;;5010510;28;20461;-70
2023/05/01 04:53:00;;;;;;;11.60;10.50;;;9.10;99.90;;;;;;5008469;28;20958;-70
2023/05/01 04:55:27;;;;;;;11.50;10.40;;;9.20;99.90;;;;;;5009551;28;20462;-70
2023/05/01 04:57:56;;;;;;;12.67;11.57;;;9.20;98.90;;;;;;5009920;28;20518;-70
2023/05/01 05:00:26;;;;;;;12.43;11.13;;;9.20;99.10;;;;;;5009673;28;20945;-70
2023/05/01 05:02:53;;;;;;;12.00;10.80;;;9.20;98.60;;;;;;5008629;28;20469;-71
2023/05/01 05:05:20;;;;;;;12.33;11.23;;;9.30;98.40;;;;;;5009766;28;20809;-70
2023/05/01 05:07:47;;;;;;;12.13;11.00;;;9.30;98.60;;;;;;5010045;28;20449;-70
2023/05/01 05:10:14;;;;;;;12.60;11.30;;;9.40;99.90;;;;;;5009518;28;20460;-70
2023/05/01 05:12:40;;;;;;;13.30;11.63;;;9.50;99.90;;;;;;5012252;28;20483;-70
2023/05/01 05:15:08;;;;;;;12.60;11.40;;;9.70;99.90;;;;;;5013376;28;20459;-70
2023/05/01 05:17:36;;;;;;;12.27;11.03;;;9.60;99.90;;;;;;5013330;28;20467;-70
2023/05/01 05:20:04;;;;;;;12.53;11.23;;;9.70;99.50;;;;;;5013101;28;20453;-71
2023/05/01 05:22:31;;;;;;;12.23;11.17;;;9.80;99.50;;;;;;5011584;28;20441;-70
2023/05/01 05:25:02;;;;;;;11.20;10.20;;;9.90;99.80;;;;;;5013052;28;20954;-70
2023/05/01 05:27:29;;;;;;;11.80;10.70;;;10.00;99.30;;;;;;5012636;28;21174;-71
2023/05/01 05:29:56;;;;;;;12.70;10.60;;;10.00;98.20;;;;;;5012992;28;21142;-70
2023/05/01 05:32:23;;;;;;;12.47;11.10;;;10.00;97.00;;;;;;5011677;28;20548;-70
2023/05/01 05:34:51;;;;;;;12.17;11.00;;;10.00;96.90;;;;;;5012476;28;20551;-70
2023/05/01 05:37:18;;;;;;;11.37;10.37;;;10.10;96.40;;;;;;5012868;28;20460;-70
2023/05/01 05:39:45;;;;;;;12.50;10.77;;;10.00;98.20;;;;;;5012713;28;20457;-70
2023/05/01 05:42:12;;;;;;;12.10;11.00;;;10.10;99.00;;;;;;5012524;28;20454;-70
2023/05/01 05:44:39;;;;;;;15.23;11.80;;;10.30;98.70;;;;;;5011836;28;20469;-70
2023/05/01 05:47:06;;;;;;;13.47;12.07;;;10.30;98.00;;;;;;5012817;28;20440;-70
2023/05/01 05:49:32;;;;;;;11.73;10.57;;;10.30;96.20;;;;;;5012370;28;20540;-70
2023/05/01 05:52:00;;;;;;;12.73;11.63;;;10.20;96.10;;;;;;5012595;28;20449;-70
2023/05/01 05:54:27;;;;;;;11.70;10.50;;;10.20;96.10;;;;;;5011192;28;21185;-70
2023/05/01 05:56:54;;;;;;;13.20;11.73;;;10.10;95.80;;;;;;5012645;28;20484;-71
2023/05/01 05:59:21;;;;;;;12.50;11.23;;;10.00;97.60;;;;;;5012529;28;20957;-70
2023/05/01 06:01:48;;;;;;;11.27;10.27;;;10.10;98.70;;;;;;5012107;28;20552;-70
2023/05/01 06:04:15;;;;;;;11.67;10.67;;;10.20;99.00;;;;;;5011077;28;20465;-71
2023/05/01 06:06:42;;;;;;;11.93;10.73;;;10.30;98.10;;;;;;5012080;28;20548;-69
2023/05/01 06:09:11;;;;;;;11.53;10.43;;;10.30;97.90;;;;;;5012091;28;21018;-71
2023/05/01 06:11:38;;;;;;;11.23;10.20;;;10.20;97.50;;;;;;5011994;28;20463;-71
2023/05/01 06:14:05;;;;;;;11.70;10.70;;;10.20;97.10;;;;;;5011391;28;20489;-70
2023/05/01 06:16:32;;;;;;;10.70;9.70;;;10.00;98.10;;;;;;5012528;28;20463;-71
2023/05/01 06:18:59;;;;;;;11.40;10.37;;;10.00;98.50;;;;;;5008613;28;20458;-71
2023/05/01 06:21:26;;;;;;;11.13;10.23;;;10.10;99.00;;;;;;5006960;28;20541;-70
2023/05/01 06:23:53;;;;;;;10.87;9.87;;;10.10;99.10;;;;;;5008761;28;20882;-71
2023/05/01 06:26:22;;;;;;;12.10;11.00;;;10.10;98.20;;;;;;5012056;28;20446;-70
2023/05/01 06:28:48;;;;;;;11.30;10.27;;;10.20;99.60;;;;;;5011791;28;20451;-70
2023/05/01 06:31:15;;;;;;;11.60;10.60;;;10.40;98.30;;;;;;5011940;28;20449;-71
2023/05/01 06:33:42;;;;;;;11.43;10.33;;;10.60;97.80;;;;;;5010438;28;20492;-71
2023/05/01 06:36:09;;;;;;;10.17;9.27;;;10.70;97.40;;;;;;5011817;28;20460;-70
2023/05/01 06:38:36;;;;;;;11.33;10.30;;;11.00;97.20;;;;;;5012092;28;20454;-70
2023/05/01 06:41:04;;;;;;;10.67;9.73;;;11.10;96.40;;;;;;5011392;28;20462;-71
2023/05/01 06:43:32;;;;;;;11.07;10.17;;;11.20;95.00;;;;;;5010394;28;20477;-72
2023/05/01 06:45:59;;;;;;;10.53;9.63;;;11.10;97.50;;;;;;5011272;28;20493;-71
2023/05/01 06:48:26;;;;;;;11.20;10.10;;;11.20;96.80;;;;;;5011843;28;20452;-71
2023/05/01 06:50:52;;;;;;;10.37;9.57;;;11.20;96.10;;;;;;5011238;28;20793;-71
2023/05/01 06:53:19;;;;;;;10.53;9.73;;;11.20;95.40;;;;;;5010419;28;20482;-71
2023/05/01 06:55:46;;;;;;;11.67;10.47;;;11.20;95.80;;;;;;5011481;28;20446;-71
2023/05/01 06:58:13;;;;;;;11.07;10.17;;;11.30;96.40;;;;;;5011174;28;20476;-71
2023/05/01 07:00:41;;;;;;;10.40;9.50;;;11.40;96.50;;;;;;5011419;28;20540;-70
2023/05/01 07:03:08;;;;;;;10.90;9.80;;;11.40;97.30;;;;;;5009961;28;20458;-71
2023/05/01 07:05:34;;;;;;;11.27;10.17;;;11.40;97.70;;;;;;5011399;28;20625;-70
2023/05/01 07:08:01;;;;;;;10.63;9.70;;;11.50;96.90;;;;;;5011052;28;20550;-72
2023/05/01 07:10:29;;;;;;;10.30;9.27;;;11.50;96.60;;;;;;5011183;28;20462;-72
2023/05/01 07:12:56;;;;;;;12.50;11.30;;;11.60;97.30;;;;;;5009667;28;21008;-71
2023/05/01 07:15:23;;;;;;;11.57;10.23;;;11.70;98.80;;;;;;5011245;28;20453;-71
2023/05/01 07:17:52;;;;;;;11.70;10.70;;;11.80;98.10;;;;;;5011066;28;20455;-71
2023/05/01 07:20:19;;;;;;;12.07;11.00;;;11.80;96.80;;;;;;5010893;28;20463;-71
2023/05/01 07:22:45;;;;;;;11.37;10.40;;;11.90;95.60;;;;;;5009913;28;20442;-71
2023/05/01 07:25:13;;;;;;;12.10;11.00;;;11.90;95.30;;;;;;5010752;28;20544;-70
2023/05/01 07:27:40;;;;;;;11.77;10.67;;;11.80;95.50;;;;;;5011357;28;21001;-71
2023/05/01 07:30:08;;;;;;;13.07;11.87;;;12.00;96.20;;;;;;5010905;28;20457;-71
2023/05/01 07:32:35;;;;;;;11.47;10.47;;;12.10;97.10;;;;;;5009801;28;20499;-70
2023/05/01 07:35:03;;;;;;;12.10;11.10;;;12.30;96.40;;;;;;5009690;28;20516;-70
2023/05/01 07:37:30;;;;;;;12.83;11.73;;;12.50;96.60;;;;;;5010372;28;20251;-71
2023/05/01 07:39:57;;;;;;;13.00;11.83;;;12.70;95.90;;;;;;5010414;28;20966;-70
2023/05/01 07:42:26;;;;;;;12.73;11.53;;;12.90;95.40;;;;;;5009308;28;20453;-70
2023/05/01 07:44:52;;;;;;;14.17;12.97;;;13.00;95.10;;;;;;5010395;28;20463;-70
2023/05/01 07:47:19;;;;;;;13.20;12.00;;;13.10;95.80;;;;;;5010096;28;20461;-71
2023/05/01 07:49:46;;;;;;;11.83;10.83;;;13.20;93.20;;;;;;5010319;28;20456;-71
2023/05/01 07:52:15;;;;;;;11.07;10.03;;;13.30;93.80;;;;;;5009794;28;20479;-71
2023/05/01 07:54:42;;;;;;;11.70;10.70;;;13.50;93.60;;;;;;5009193;28;20850;-72
2023/05/01 07:57:08;;;;;;;11.70;10.70;;;13.70;92.30;;;;;;5010290;28;20461;-71
2023/05/01 07:59:35;;;;;;;11.13;10.10;;;14.10;91.70;;;;;;5010099;28;20449;-70
2023/05/01 08:02:02;;;;;;;12.82;11.82;;;14.30;90.50;;;;;;5008353;28;20435;-71
2023/05/01 08:04:29;;;;;;;10.90;10.00;;;14.50;94.00;;;;;;5008745;28;20913;-71
2023/05/01 08:06:56;;;;;;;11.53;10.63;;;14.70;90.60;;;;;;5009860;28;20439;-71
2023/05/01 08:09:24;;;;;;;9.73;8.73;;;15.00;91.30;;;;;;5009975;28;20460;-70
2023/05/01 08:11:51;;;;;;;9.03;8.23;;;15.30;86.00;;;;;;5009782;28;20456;-70
2023/05/01 08:14:18;;;;;;;8.33;7.73;;;15.50;83.70;;;;;;5009102;28;20490;-70
2023/05/01 08:16:45;;;;;;;9.40;8.70;;;15.60;80.80;;;;;;5010311;28;20548;-71
2023/05/01 08:19:12;;;;;;;10.13;8.70;;;15.70;74.40;;;;;;5010210;28;20457;-72
2023/05/01 08:21:39;;;;;;;9.97;8.93;;;15.60;80.40;;;;;;5009845;28;20535;-72
2023/05/01 08:24:10;;;;;;;9.53;8.73;;;15.70;77.30;;;;;;5009351;28;20469;-73
2023/05/01 08:26:38;;;;;;;8.50;7.83;;;15.50;76.70;;;;;;5009833;28;20928;-73
2023/05/01 08:29:05;;;;;;;10.03;9.03;;;15.40;74.80;;;;;;5010085;28;20457;-69
2023/05/01 08:31:32;;;;;;;9.70;8.70;;;15.40;79.70;;;;;;5009880;28;20448;-69
2023/05/01 08:33:58;;;;;;;9.03;8.33;;;15.40;82.90;;;;;;5008427;28;20495;-70
2023/05/01 08:36:26;;;;;;;7.83;7.10;;;15.60;77.60;;;;;;5009776;28;20455;-71
2023/05/01 08:38:53;;;;;;;7.77;7.17;;;15.70;76.50;;;;;;5009715;28;20485;-70
2023/05/01 08:41:22;;;;;;;8.10;7.50;;;15.80;79.80;;;;;;5009786;28;20485;-69
2023/05/01 08:43:50;;;;;;;8.57;7.87;;;16.10;81.10;;;;;;5008347;28;20480;-70
2023/05/01 08:46:25;;;;;;;7.87;7.30;;;16.50;73.50;;;;;;5011565;28;20549;-70
2023/05/01 08:48:56;;;;;;;7.37;6.77;;;16.70;77.90;;;;;;5013468;28;20467;-71
2023/05/01 08:51:25;;;;;;;8.73;7.97;;;17.20;72.10;;;;;;5009395;28;20975;-71
2023/05/01 08:53:53;;;;;;;8.07;7.30;;;17.50;74.90;;;;;;5012196;28;20995;-72
2023/05/01 08:56:22;;;;;;;8.67;7.87;;;17.50;65.10;;;;;;5013612;28;20454;-71
2023/05/01 08:58:52;;;;;;;8.73;8.03;;;17.10;61.90;;;;;;5013839;28;20876;-70
2023/05/01 09:01:20;;;;;;;9.37;8.67;;;16.70;62.60;;;;;;5004127;28;20466;-70
2023/05/01 09:03:49;;;;;;;8.33;7.63;;;16.60;62.60;;;;;;5002139;28;20470;-70
2023/05/01 09:06:16;;;;;;;8.93;8.23;;;16.70;70.60;;;;;;5012252;28;20450;-72
2023/05/01 09:08:43;;;;;;;8.70;7.80;;;17.10;65.60;;;;;;5016199;28;20449;-71
2023/05/01 09:11:12;;;;;;;8.30;7.70;;;17.50;62.40;;;;;;5012583;28;21014;-72
2023/05/01 09:13:39;;;;;;;7.40;6.80;;;17.70;58.60;;;;;;5011619;28;20477;-71
2023/05/01 09:16:08;;;;;;;8.60;7.90;;;17.60;58.70;;;;;;5012936;28;20951;-73
2023/05/01 09:18:35;;;;;;;8.53;7.80;;;17.80;60.10;;;;;;5012365;28;20970;-71
2023/05/01 09:21:02;;;;;;;8.70;7.90;;;17.80;58.10;;;;;;5011275;28;20515;-73
2023/05/01 09:23:29;;;;;;;8.83;8.10;;;17.50;57.80;;;;;;5008665;28;20472;-71
2023/05/01 09:25:57;;;;;;;7.63;7.03;;;17.20;57.80;;;;;;5011356;28;20461;-71
2023/05/01 09:28:40;;;;;;;7.70;7.17;;;17.30;59.20;;;;;;5012733;28;20454;-71
2023/05/01 09:31:21;;;;;;;7.43;6.83;;;17.60;58.20;;;;;;5012950;28;20445;-72
2023/05/01 09:33:55;;;;;;;7.80;7.13;;;17.90;59.80;;;;;;5011710;28;20466;-72
2023/05/01 09:36:24;;;;;;;8.30;7.10;;;18.60;62.50;;;;;;5013227;28;20524;-71
2023/05/01 09:38:51;;;;;;;8.37;7.67;;;19.20;58.00;;;;;;5013168;28;20454;-71
2023/05/01 09:41:19;;;;;;;8.43;7.80;;;19.20;54.10;;;;;;4999715;28;20457;-71
2023/05/01 09:43:50;;;;;;;10.23;8.37;;;18.80;55.10;;;;;;5008262;28;20493;-71
2023/05/01 09:46:19;;;;;;;9.17;8.37;;;18.40;56.60;;;;;;5004895;28;20462;-72
2023/05/01 09:48:54;;;;;;;8.07;7.47;;;18.30;59.60;;;;;;5003862;28;20824;-74
2023/05/01 09:51:23;;;;;;;8.67;7.87;;;18.50;61.20;;;;;;5010712;28;20935;-70
2023/05/01 09:53:51;;;;;;;9.43;8.50;;;18.80;57.70;;;;;;5013763;28;20552;-72
2023/05/01 09:56:18;;;;;;;8.37;7.77;;;19.10;58.70;;;;;;5007695;28;20450;-72
2023/05/01 09:58:45;;;;;;;8.60;7.97;;;19.60;58.60;;;;;;5002790;28;20446;-72
2023/05/01 10:01:12;;;;;;;8.63;7.93;;;20.00;61.50;;;;;;5007793;28;20443;-70
2023/05/01 10:03:42;;;;;;;9.27;8.57;;;20.40;59.60;;;;;;5007023;28;21053;-73
2023/05/01 10:06:09;;;;;;;8.87;8.17;;;21.00;56.40;;;;;;5008558;28;20442;-73
2023/05/01 10:08:49;;;;;;;8.20;7.60;;;20.40;54.50;;;;;;5008636;28;20450;-73
2023/05/01 10:11:16;;;;;;;9.43;8.73;;;20.20;57.20;;;;;;5008940;28;20462;-71
2023/05/01 10:13:43;;;;;;;8.60;7.90;;;20.20;53.70;;;;;;5007440;28;21013;-72
2023/05/01 10:16:29;;;;;;;8.57;7.87;;;20.50;55.40;;;;;;5008296;28;20478;-71
2023/05/01 10:18:58;;;;;;;9.07;8.33;;;19.90;56.00;;;;;;5004406;28;20454;-71
2023/05/01 10:21:25;;;;;;;9.27;8.50;;;19.60;53.90;;;;;;4994443;28;20450;-69
2023/05/01 10:23:54;;;;;;;8.83;8.13;;;19.10;55.20;;;;;;5002005;28;20480;-69
2023/05/01 10:26:21;;;;;;;9.23;8.53;;;18.80;55.80;;;;;;5002319;28;20457;-68
2023/05/01 10:28:49;;;;;;;9.30;8.60;;;18.50;56.30;;;;;;4999422;28;20986;-71
2023/05/01 10:31:21;;;;;;;10.20;9.40;;;18.00;55.70;;;;;;5002483;28;20457;-70
2023/05/01 10:33:48;;;;;;;8.57;7.87;;;17.90;58.50;;;;;;5002469;28;20462;-70
2023/05/01 10:36:21;;;;;;;9.07;8.27;;;18.30;58.70;;;;;;5008326;28;20520;-70
2023/05/01 10:38:48;;;;;;;9.20;8.50;;;18.60;56.40;;;;;;5007548;28;20819;-71
2023/05/01 10:41:16;;;;;;;9.03;8.33;;;18.60;56.40;;;;;;5004455;28;20461;-70
2023/05/01 10:43:43;;;;;;;9.50;8.80;;;19.10;56.70;;;;;;4997727;28;20963;-71
2023/05/01 10:46:28;;;;;;;8.73;8.03;;;18.90;55.90;;;;;;5004697;28;20443;-71
2023/05/01 10:48:58;;;;;;;8.90;8.20;;;18.90;56.40;;;;;;5004687;28;20458;-70
2023/05/01 10:51:27;;;;;;;9.70;8.73;;;19.00;57.70;;;;;;5004191;28;20832;-72
2023/05/01 10:54:25;;;;;;;9.03;8.33;;;19.30;60.30;;;;;;5003973;28;20585;-70
2023/05/01 10:56:53;;;;;;;9.40;8.70;;;19.70;57.50;;;;;;4995983;28;20960;-72
2023/05/01 10:59:20;;;;;;;9.20;8.50;;;19.70;57.80;;;;;;4998061;28;20937;-70
2023/05/01 11:01:48;;;;;;;9.40;8.60;;;20.00;58.20;;;;;;5002091;28;20544;-75
2023/05/01 11:04:49;;;;;;;9.40;8.70;;;19.70;55.50;;;;;;5002601;28;20477;-69
2023/05/01 11:07:22;;;;;;;10.10;9.30;;;19.30;56.10;;;;;;4997363;28;20450;-70
2023/05/01 11:09:53;;;;;;;9.20;8.50;;;19.10;56.90;;;;;;4996978;28;20609;-73
2023/05/01 11:12:52;;;;;;;10.17;9.37;;;19.20;59.60;;;;;;5002272;28;20460;-71
2023/05/01 11:15:27;;;;;;;10.10;9.20;;;19.60;59.20;;;;;;5000593;28;20481;-72
2023/05/01 11:17:54;;;;;;;9.60;8.80;;;20.10;59.80;;;;;;4999692;28;20460;-70
2023/05/01 11:20:49;;;;;;;10.03;9.23;;;20.60;56.10;;;;;;5005025;28;20450;-71
2023/05/01 11:23:22;;;;;;;10.10;9.20;;;20.70;56.00;;;;;;5003889;28;20571;-73
2023/05/01 11:25:50;;;;;;;9.20;8.50;;;20.20;53.00;;;;;;5002285;28;20504;-71
2023/05/01 11:28:24;;;;;;;9.07;8.13;;;19.60;53.60;;;;;;5005111;28;20457;-71
2023/05/01 11:30:51;;;;;;;9.40;8.60;;;19.30;57.00;;;;;;5007329;28;20455;-73
2023/05/01 11:33:26;;;;;;;9.03;8.20;;;19.30;54.50;;;;;;5005587;28;20492;-75
2023/05/01 11:36:00;;;;;;;8.80;8.10;;;19.40;53.40;;;;;;5006136;28;20481;-72
2023/05/01 11:38:29;;;;;;;7.67;7.07;;;19.10;53.60;;;;;;5006466;28;20449;-70
2023/05/01 11:41:02;;;;;;;7.77;7.17;;;19.00;54.90;;;;;;5005844;28;20445;-74
2023/05/01 11:43:29;;;;;;;7.80;7.20;;;19.20;53.00;;;;;;5004381;28;20478;-71
2023/05/01 11:46:01;;;;;;;8.60;7.90;;;19.10;54.20;;;;;;5006164;28;20434;-71
2023/05/01 11:48:29;;;;;;;8.20;7.50;;;19.20;53.20;;;;;;5005057;28;21179;-71
2023/05/01 11:50:56;;;;;;;7.60;6.90;;;19.10;53.20;;;;;;5006264;28;21113;-72
2023/05/01 11:53:23;;;;;;;8.20;7.50;;;19.40;54.20;;;;;;5005699;28;20464;-72
2023/05/01 11:55:51;;;;;;;8.40;7.70;;;19.60;52.90;;;;;;5006700;28;20478;-71
2023/05/01 11:58:30;;;;;;;8.60;7.80;;;19.40;52.70;;;;;;4994526;28;20449;-70
2023/05/01 12:00:57;;;;;;;8.87;8.17;;;19.20;52.50;;;;;;5000605;28;20469;-71
2023/05/01 12:03:24;;;;;;;7.90;7.30;;;19.00;53.00;;;;;;4995286;28;20466;-70
2023/05/01 12:05:52;;;;;;;8.13;7.40;;;19.00;54.60;;;;;;4993545;28;20451;-71
2023/05/01 12:08:20;;;;;;;8.03;7.43;;;19.10;54.50;;;;;;4998752;28;20828;-71
2023/05/01 12:10:50;;;;;;;8.77;7.97;;;19.10;54.10;;;;;;5003235;28;20552;-71
2023/05/01 12:13:19;;;;;;;8.77;8.13;;;19.10;54.10;;;;;;4995627;28;21245;-70
2023/05/01 12:15:47;;;;;;;8.77;8.07;;;19.00;54.00;;;;;;4989711;28;20478;-70
2023/05/01 12:18:15;;;;;;;8.87;8.13;;;18.80;53.80;;;;;;4996593;28;20516;-70
2023/05/01 12:20:45;;;;;;;9.10;8.20;;;18.90;53.90;;;;;;4994746;28;20450;-69
2023/05/01 12:23:14;;;;;;;8.43;7.70;;;19.10;53.30;;;;;;5002780;28;20470;-70
2023/05/01 12:25:42;;;;;;;8.53;7.73;;;19.40;54.10;;;;;;4999539;28;20446;-70
2023/05/01 12:28:10;;;;;;;8.87;8.17;;;19.60;54.20;;;;;;5001468;28;20468;-71
2023/05/01 12:30:39;;;;;;;8.80;8.17;;;19.70;53.50;;;;;;5001755;28;20469;-71
2023/05/01 12:33:11;;;;;;;9.27;8.33;;;19.60;54.10;;;;;;5002760;28;20588;-70
2023/05/01 12:35:39;;;;;;;8.83;8.10;;;19.10;53.50;;;;;;5004402;28;20484;-71
2023/05/01 12:38:14;;;;;;;9.50;8.47;;;19.00;56.50;;;;;;5005471;28;20829;-71
2023/05/01 12:40:51;;;;;;;9.50;8.73;;;19.10;54.90;;;;;;4997853;28;20541;-70
2023/05/01 12:43:18;;;;;;;8.23;7.63;;;19.30;56.50;;;;;;4995588;28;20464;-73
2023/05/01 12:45:51;;;;;;;8.60;7.33;;;20.30;56.90;;;;;;4998417;28;20803;-71
2023/05/01 12:48:18;;;;;;;8.93;8.33;;;21.30;54.80;;;;;;5000123;28;20960;-71